sensor_id;sensor_type;location;lat;lon;timestamp;pressure;altitude;pressure_sealevel;temperature;humidity
11542;BME280;5827;49.482;7.716;2022-08-30T00:02:01;99071.22;;;16.81;88.78
11542;BME280;5827;49.482;7.716;2022-08-30T00:04:02;99067.47;;;16.77;88.94
11542;BME280;5827;49.482;7.716;2022-08-30T00:06:08;99064.50;;;16.73;90.43
11542;BME280;5827;49.482;7.716;2022-08-30T00:08:11;99063.69;;;16.73;90.74
11542;BME280;5827;49.482;7.716;2022-08-30T00:10:14;99061.22;;;16.76;90.98
11542;BME280;5827;49.482;7.716;2022-08-30T00:12:16;99062.88;;;16.77;90.96
11542;BME280;5827;49.482;7.716;2022-08-30T00:14:20;99062.06;;;16.72;91.15
11542;BME280;5827;49.482;7.716;2022-08-30T00:16:22;99062.03;;;16.67;91.26
11542;BME280;5827;49.482;7.716;2022-08-30T00:18:25;99060.44;;;16.66;91.69
11542;BME280;5827;49.482;7.716;2022-08-30T00:20:30;99063.41;;;16.64;92.18
11542;BME280;5827;49.482;7.716;2022-08-30T00:22:32;99068.28;;;16.62;91.95
11542;BME280;5827;49.482;7.716;2022-08-30T00:24:33;99062.63;;;16.48;90.90
11542;BME280;5827;49.482;7.716;2022-08-30T00:26:36;99071.84;;;16.47;90.94
11542;BME280;5827;49.482;7.716;2022-08-30T00:28:38;99064.81;;;16.46;91.31
11542;BME280;5827;49.482;7.716;2022-08-30T00:30:40;99072.41;;;16.49;91.62
11542;BME280;5827;49.482;7.716;2022-08-30T00:32:41;99076.44;;;16.47;91.24
11542;BME280;5827;49.482;7.716;2022-08-30T00:34:43;99084.03;;;16.45;90.93
11542;BME280;5827;49.482;7.716;2022-08-30T00:36:44;99081.88;;;16.42;91.09
11542;BME280;5827;49.482;7.716;2022-08-30T00:38:46;99076.47;;;16.37;91.31
11542;BME280;5827;49.482;7.716;2022-08-30T00:40:47;99079.44;;;16.35;91.38
11542;BME280;5827;49.482;7.716;2022-08-30T00:42:50;99069.44;;;16.31;91.80
11542;BME280;5827;49.482;7.716;2022-08-30T00:44:52;99068.13;;;16.23;92.67
11542;BME280;5827;49.482;7.716;2022-08-30T00:46:53;99071.88;;;16.17;93.50
11542;BME280;5827;49.482;7.716;2022-08-30T00:48:55;99071.66;;;16.08;94.73
11542;BME280;5827;49.482;7.716;2022-08-30T00:50:59;99074.09;;;15.99;94.48
11542;BME280;5827;49.482;7.716;2022-08-30T00:53:06;99065.19;;;15.99;94.41
11542;BME280;5827;49.482;7.716;2022-08-30T00:55:10;99066.22;;;15.98;94.32
11542;BME280;5827;49.482;7.716;2022-08-30T00:57:14;99059.75;;;16.04;95.07
11542;BME280;5827;49.482;7.716;2022-08-30T00:59:18;99066.53;;;15.96;94.83
11542;BME280;5827;49.482;7.716;2022-08-30T01:01:21;99067.59;;;15.95;94.83
11542;BME280;5827;49.482;7.716;2022-08-30T01:03:23;99074.63;;;15.91;95.15
11542;BME280;5827;49.482;7.716;2022-08-30T01:05:25;99072.19;;;15.95;94.72
11542;BME280;5827;49.482;7.716;2022-08-30T01:07:26;99067.34;;;15.92;95.68
11542;BME280;5827;49.482;7.716;2022-08-30T01:09:28;99066.25;;;15.88;96.37
11542;BME280;5827;49.482;7.716;2022-08-30T01:11:31;99070.56;;;15.84;95.94
11542;BME280;5827;49.482;7.716;2022-08-30T01:13:34;99067.88;;;15.84;95.57
11542;BME280;5827;49.482;7.716;2022-08-30T01:15:37;99063.84;;;15.76;95.17
11542;BME280;5827;49.482;7.716;2022-08-30T01:17:39;99067.88;;;15.79;94.76
11542;BME280;5827;49.482;7.716;2022-08-30T01:19:46;99069.75;;;15.78;94.54
11542;BME280;5827;49.482;7.716;2022-08-30T01:21:51;99068.94;;;15.83;95.30
11542;BME280;5827;49.482;7.716;2022-08-30T01:23:57;99070.31;;;15.85;95.99
11542;BME280;5827;49.482;7.716;2022-08-30T01:26:01;99076.25;;;15.82;96.32
11542;BME280;5827;49.482;7.716;2022-08-30T01:28:05;99075.44;;;15.82;95.78
11542;BME280;5827;49.482;7.716;2022-08-30T01:30:09;99075.97;;;15.79;96.74
11542;BME280;5827;49.482;7.716;2022-08-30T01:32:15;99073.56;;;15.82;96.55
11542;BME280;5827;49.482;7.716;2022-08-30T01:34:18;99077.88;;;15.83;96.26
11542;BME280;5827;49.482;7.716;2022-08-30T01:36:20;99077.34;;;15.81;95.87
11542;BME280;5827;49.482;7.716;2022-08-30T01:38:25;99079.19;;;15.75;95.60
11542;BME280;5827;49.482;7.716;2022-08-30T01:40:29;99068.69;;;15.74;97.00
11542;BME280;5827;49.482;7.716;2022-08-30T01:42:30;99066.25;;;15.78;97.35
11542;BME280;5827;49.482;7.716;2022-08-30T01:44:32;99062.75;;;15.77;97.26
11542;BME280;5827;49.482;7.716;2022-08-30T01:46:36;99066.78;;;15.80;97.20
11542;BME280;5827;49.482;7.716;2022-08-30T01:48:38;99068.94;;;15.83;96.92
11542;BME280;5827;49.482;7.716;2022-08-30T01:50:40;99069.22;;;15.81;95.88
11542;BME280;5827;49.482;7.716;2022-08-30T01:52:42;99070.56;;;15.73;95.93
11542;BME280;5827;49.482;7.716;2022-08-30T01:54:44;99068.69;;;15.74;96.63
11542;BME280;5827;49.482;7.716;2022-08-30T01:56:47;99073.00;;;15.75;96.35
11542;BME280;5827;49.482;7.716;2022-08-30T01:58:50;99068.97;;;15.72;96.42
11542;BME280;5827;49.482;7.716;2022-08-30T02:00:52;99069.47;;;15.64;96.47
11542;BME280;5827;49.482;7.716;2022-08-30T02:02:53;99065.38;;;15.62;97.47
11542;BME280;5827;49.482;7.716;2022-08-30T02:04:57;99061.34;;;15.59;97.57
11542;BME280;5827;49.482;7.716;2022-08-30T02:06:58;99055.38;;;15.57;97.34
11542;BME280;5827;49.482;7.716;2022-08-30T02:09:00;99056.22;;;15.63;97.97
11542;BME280;5827;49.482;7.716;2022-08-30T02:11:03;99058.91;;;15.58;97.44
11542;BME280;5827;49.482;7.716;2022-08-30T02:13:07;99062.97;;;15.55;97.72
11542;BME280;5827;49.482;7.716;2022-08-30T02:15:09;99058.38;;;15.50;98.60
11542;BME280;5827;49.482;7.716;2022-08-30T02:17:13;99060.78;;;15.42;97.89
11542;BME280;5827;49.482;7.716;2022-08-30T02:19:15;99061.59;;;15.42;98.06
11542;BME280;5827;49.482;7.716;2022-08-30T02:21:17;99058.06;;;15.42;97.87
11542;BME280;5827;49.482;7.716;2022-08-30T02:23:19;99053.19;;;15.39;97.93
11542;BME280;5827;49.482;7.716;2022-08-30T02:25:20;99052.94;;;15.35;98.00
11542;BME280;5827;49.482;7.716;2022-08-30T02:27:22;99059.69;;;15.33;98.20
11542;BME280;5827;49.482;7.716;2022-08-30T02:29:27;99061.84;;;15.31;98.33
11542;BME280;5827;49.482;7.716;2022-08-30T02:31:29;99060.50;;;15.33;97.38
11542;BME280;5827;49.482;7.716;2022-08-30T02:33:31;99055.09;;;15.33;97.61
11542;BME280;5827;49.482;7.716;2022-08-30T02:35:33;99048.06;;;15.32;97.61
11542;BME280;5827;49.482;7.716;2022-08-30T02:37:34;99042.69;;;15.32;97.99
11542;BME280;5827;49.482;7.716;2022-08-30T02:39:36;99037.56;;;15.36;97.49
11542;BME280;5827;49.482;7.716;2022-08-30T02:41:38;99038.38;;;15.36;97.36
11542;BME280;5827;49.482;7.716;2022-08-30T02:43:40;99042.69;;;15.32;97.12
11542;BME280;5827;49.482;7.716;2022-08-30T02:45:43;99041.06;;;15.26;96.77
11542;BME280;5827;49.482;7.716;2022-08-30T02:47:44;99035.09;;;15.29;96.56
11542;BME280;5827;49.482;7.716;2022-08-30T02:49:46;99047.50;;;15.30;95.93
11542;BME280;5827;49.482;7.716;2022-08-30T02:51:47;99047.50;;;15.30;95.41
11542;BME280;5827;49.482;7.716;2022-08-30T02:53:49;99048.31;;;15.25;96.06
11542;BME280;5827;49.482;7.716;2022-08-30T02:55:50;99040.22;;;15.20;96.35
11542;BME280;5827;49.482;7.716;2022-08-30T02:57:52;99034.56;;;15.17;96.85
11542;BME280;5827;49.482;7.716;2022-08-30T02:59:53;99036.16;;;15.18;97.25
11542;BME280;5827;49.482;7.716;2022-08-30T03:01:56;99033.19;;;15.24;98.44
11542;BME280;5827;49.482;7.716;2022-08-30T03:03:58;99029.16;;;15.17;97.50
11542;BME280;5827;49.482;7.716;2022-08-30T03:05:59;99036.16;;;15.18;97.48
11542;BME280;5827;49.482;7.716;2022-08-30T03:08:02;99027.25;;;15.17;96.50
11542;BME280;5827;49.482;7.716;2022-08-30T03:10:04;99031.56;;;15.13;95.73
11542;BME280;5827;49.482;7.716;2022-08-30T03:12:07;99034.00;;;15.15;95.46
11542;BME280;5827;49.482;7.716;2022-08-30T03:14:09;99039.66;;;15.13;95.80
11542;BME280;5827;49.482;7.716;2022-08-30T03:16:11;99035.06;;;15.14;95.85
11542;BME280;5827;49.482;7.716;2022-08-30T03:18:14;99036.97;;;15.18;95.38
11542;BME280;5827;49.482;7.716;2022-08-30T03:20:15;99031.84;;;15.17;94.86
11542;BME280;5827;49.482;7.716;2022-08-30T03:22:17;99038.88;;;15.18;94.40
11542;BME280;5827;49.482;7.716;2022-08-30T03:24:18;99035.06;;;15.14;94.80
11542;BME280;5827;49.482;7.716;2022-08-30T03:26:20;99042.66;;;15.17;95.09
11542;BME280;5827;49.482;7.716;2022-08-30T03:28:22;99035.63;;;15.16;94.39
11542;BME280;5827;49.482;7.716;2022-08-30T03:30:23;99038.31;;;15.11;95.40
11542;BME280;5827;49.482;7.716;2022-08-30T03:32:25;99035.59;;;15.06;94.73
11542;BME280;5827;49.482;7.716;2022-08-30T03:34:28;99024.00;;;15.05;95.81
11542;BME280;5827;49.482;7.716;2022-08-30T03:36:29;99025.31;;;15.03;94.62
11542;BME280;5827;49.482;7.716;2022-08-30T03:38:31;99023.97;;;14.95;95.10
11542;BME280;5827;49.482;7.716;2022-08-30T03:40:33;99020.19;;;14.91;95.09
11542;BME280;5827;49.482;7.716;2022-08-30T03:42:35;99019.91;;;14.92;95.27
11542;BME280;5827;49.482;7.716;2022-08-30T03:44:36;99021.53;;;14.93;94.57
11542;BME280;5827;49.482;7.716;2022-08-30T03:46:38;99016.66;;;14.90;94.61
11542;BME280;5827;49.482;7.716;2022-08-30T03:48:40;99026.66;;;14.95;94.78
11542;BME280;5827;49.482;7.716;2022-08-30T03:50:44;99022.06;;;14.95;96.00
11542;BME280;5827;49.482;7.716;2022-08-30T03:52:45;99024.22;;;14.93;95.02
11542;BME280;5827;49.482;7.716;2022-08-30T03:54:48;99032.56;;;14.87;94.71
11542;BME280;5827;49.482;7.716;2022-08-30T03:56:49;99024.47;;;14.82;94.80
11542;BME280;5827;49.482;7.716;2022-08-30T03:58:51;99016.88;;;14.79;95.59
11542;BME280;5827;49.482;7.716;2022-08-30T04:00:52;99019.34;;;14.80;96.37
11542;BME280;5827;49.482;7.716;2022-08-30T04:02:54;99013.66;;;14.77;96.50
11542;BME280;5827;49.482;7.716;2022-08-30T04:04:55;99022.25;;;14.68;95.87
11542;BME280;5827;49.482;7.716;2022-08-30T04:06:58;99024.13;;;14.68;96.58
11542;BME280;5827;49.482;7.716;2022-08-30T04:08:59;99020.38;;;14.69;96.46
11542;BME280;5827;49.482;7.716;2022-08-30T04:11:01;99016.84;;;14.68;95.70
11542;BME280;5827;49.482;7.716;2022-08-30T04:13:02;99021.44;;;14.68;96.39
11542;BME280;5827;49.482;7.716;2022-08-30T04:15:05;99029.53;;;14.68;95.80
11542;BME280;5827;49.482;7.716;2022-08-30T04:17:09;99023.06;;;14.69;95.16
11542;BME280;5827;49.482;7.716;2022-08-30T04:19:11;99030.34;;;14.68;95.48
11542;BME280;5827;49.482;7.716;2022-08-30T04:21:12;99031.16;;;14.69;95.51
11542;BME280;5827;49.482;7.716;2022-08-30T04:23:16;99036.00;;;14.67;94.72
11542;BME280;5827;49.482;7.716;2022-08-30T04:25:17;99032.50;;;14.66;95.16
11542;BME280;5827;49.482;7.716;2022-08-30T04:27:19;99043.03;;;14.68;95.10
11542;BME280;5827;49.482;7.716;2022-08-30T04:29:20;99036.53;;;14.64;95.18
11542;BME280;5827;49.482;7.716;2022-08-30T04:31:22;99035.16;;;14.61;95.61
11542;BME280;5827;49.482;7.716;2022-08-30T04:33:23;99036.25;;;14.60;95.86
11542;BME280;5827;49.482;7.716;2022-08-30T04:35:25;99039.75;;;14.61;96.52
11542;BME280;5827;49.482;7.716;2022-08-30T04:37:27;99037.59;;;14.63;96.00
11542;BME280;5827;49.482;7.716;2022-08-30T04:39:30;99047.03;;;14.60;95.74
11542;BME280;5827;49.482;7.716;2022-08-30T04:41:31;99047.84;;;14.61;96.08
11542;BME280;5827;49.482;7.716;2022-08-30T04:43:33;99041.59;;;14.55;95.39
11542;BME280;5827;49.482;7.716;2022-08-30T04:45:36;99047.28;;;14.54;95.59
11542;BME280;5827;49.482;7.716;2022-08-30T04:47:39;99041.59;;;14.55;96.29
11542;BME280;5827;49.482;7.716;2022-08-30T04:49:41;99046.47;;;14.58;96.04
11542;BME280;5827;49.482;7.716;2022-08-30T04:51:42;99046.72;;;14.57;96.31
11542;BME280;5827;49.482;7.716;2022-08-30T04:53:44;99053.78;;;14.58;95.96
11542;BME280;5827;49.482;7.716;2022-08-30T04:55:47;99057.28;;;14.58;95.83
11542;BME280;5827;49.482;7.716;2022-08-30T04:57:48;99054.81;;;14.57;95.16
11542;BME280;5827;49.482;7.716;2022-08-30T04:59:50;99063.47;;;14.59;95.73
11542;BME280;5827;49.482;7.716;2022-08-30T05:01:52;99062.13;;;14.61;95.77
11542;BME280;5827;49.482;7.716;2022-08-30T05:03:54;99062.13;;;14.61;94.87
11542;BME280;5827;49.482;7.716;2022-08-30T05:05:56;99063.75;;;14.57;96.21
11542;BME280;5827;49.482;7.716;2022-08-30T05:07:58;99062.41;;;14.60;96.26
11542;BME280;5827;49.482;7.716;2022-08-30T05:09:59;99060.53;;;14.65;96.45
11542;BME280;5827;49.482;7.716;2022-08-30T05:12:02;99060.25;;;14.62;95.06
11542;BME280;5827;49.482;7.716;2022-08-30T05:14:04;99068.63;;;14.65;94.35
11542;BME280;5827;49.482;7.716;2022-08-30T05:16:07;99069.72;;;14.69;94.17
11542;BME280;5827;49.482;7.716;2022-08-30T05:18:09;99074.63;;;14.78;94.49
11542;BME280;5827;49.482;7.716;2022-08-30T05:20:11;99071.72;;;14.89;94.49
11542;BME280;5827;49.482;7.716;2022-08-30T05:22:13;99072.53;;;14.95;94.21
11542;BME280;5827;49.482;7.716;2022-08-30T05:24:14;99066.56;;;14.88;94.91
11542;BME280;5827;49.482;7.716;2022-08-30T05:26:19;99072.22;;;14.81;94.97
11542;BME280;5827;49.482;7.716;2022-08-30T05:28:22;99073.88;;;14.97;94.65
11542;BME280;5827;49.482;7.716;2022-08-30T05:30:25;99076.09;;;15.11;94.31
11542;BME280;5827;49.482;7.716;2022-08-30T05:32:27;99065.06;;;15.22;93.20
11542;BME280;5827;49.482;7.716;2022-08-30T05:34:29;99065.59;;;15.30;92.91
11542;BME280;5827;49.482;7.716;2022-08-30T05:36:33;99066.97;;;15.42;92.86
11542;BME280;5827;49.482;7.716;2022-08-30T05:38:35;99067.56;;;15.49;92.43
11542;BME280;5827;49.482;7.716;2022-08-30T05:40:39;99064.28;;;15.52;92.98
11542;BME280;5827;49.482;7.716;2022-08-30T05:42:40;99076.19;;;15.57;91.77
11542;BME280;5827;49.482;7.716;2022-08-30T05:44:43;99073.50;;;15.62;91.19
11542;BME280;5827;49.482;7.716;2022-08-30T05:46:45;99080.03;;;15.76;89.96
11542;BME280;5827;49.482;7.716;2022-08-30T05:48:49;99085.44;;;15.86;89.38
11542;BME280;5827;49.482;7.716;2022-08-30T05:51:00;99082.72;;;16.01;88.91
11542;BME280;5827;49.482;7.716;2022-08-30T05:53:02;99087.88;;;16.08;89.03
11542;BME280;5827;49.482;7.716;2022-08-30T05:55:05;99085.97;;;16.14;88.53
11542;BME280;5827;49.482;7.716;2022-08-30T05:57:07;99088.13;;;16.32;88.42
11542;BME280;5827;49.482;7.716;2022-08-30T05:59:09;99095.41;;;16.42;87.86
11542;BME280;5827;49.482;7.716;2022-08-30T06:01:19;99098.59;;;16.64;86.14
11542;BME280;5827;49.482;7.716;2022-08-30T06:03:21;99103.69;;;16.71;85.88
11542;BME280;5827;49.482;7.716;2022-08-30T06:05:23;99094.50;;;16.87;85.89
11542;BME280;5827;49.482;7.716;2022-08-30T06:07:24;99097.38;;;17.06;86.02
11542;BME280;5827;49.482;7.716;2022-08-30T06:09:26;99098.09;;;17.27;86.33
11542;BME280;5827;49.482;7.716;2022-08-30T06:11:28;99097.44;;;17.45;85.84
11542;BME280;5827;49.482;7.716;2022-08-30T06:13:29;99109.25;;;17.65;83.47
11542;BME280;5827;49.482;7.716;2022-08-30T06:15:31;99101.53;;;17.87;82.62
11542;BME280;5827;49.482;7.716;2022-08-30T06:17:34;99111.47;;;18.02;81.03
11542;BME280;5827;49.482;7.716;2022-08-30T06:19:36;99115.66;;;18.18;80.37
11542;BME280;5827;49.482;7.716;2022-08-30T06:21:38;99113.06;;;18.37;78.25
11542;BME280;5827;49.482;7.716;2022-08-30T06:23:40;99115.91;;;18.51;78.94
11542;BME280;5827;49.482;7.716;2022-08-30T06:25:41;99124.50;;;18.58;76.62
11542;BME280;5827;49.482;7.716;2022-08-30T06:27:43;99128.31;;;18.86;75.90
11542;BME280;5827;49.482;7.716;2022-08-30T06:29:44;99129.94;;;18.58;71.74
11542;BME280;5827;49.482;7.716;2022-08-30T06:31:47;99129.13;;;19.11;72.24
11542;BME280;5827;49.482;7.716;2022-08-30T06:33:51;99131.81;;;19.53;70.89
11542;BME280;5827;49.482;7.716;2022-08-30T06:35:52;99137.78;;;19.74;68.06
11542;BME280;5827;49.482;7.716;2022-08-30T06:37:54;99139.00;;;20.01;67.37
11542;BME280;5827;49.482;7.716;2022-08-30T06:39:57;99140.63;;;20.21;66.85
11542;BME280;5827;49.482;7.716;2022-08-30T06:41:58;99140.47;;;20.45;67.09
11542;BME280;5827;49.482;7.716;2022-08-30T06:44:01;99155.06;;;20.35;64.36
11542;BME280;5827;49.482;7.716;2022-08-30T06:46:05;99149.41;;;20.31;64.91
11542;BME280;5827;49.482;7.716;2022-08-30T06:48:07;99147.00;;;20.30;64.93
11542;BME280;5827;49.482;7.716;2022-08-30T06:50:11;99145.69;;;20.41;64.54
11542;BME280;5827;49.482;7.716;2022-08-30T06:52:13;99151.50;;;20.53;64.57
11542;BME280;5827;49.482;7.716;2022-08-30T06:54:14;99149.88;;;20.52;65.40
11542;BME280;5827;49.482;7.716;2022-08-30T06:56:17;99150.91;;;20.70;65.55
11542;BME280;5827;49.482;7.716;2022-08-30T06:58:19;99158.28;;;20.70;63.14
11542;BME280;5827;49.482;7.716;2022-08-30T07:00:20;99158.50;;;20.73;63.43
11542;BME280;5827;49.482;7.716;2022-08-30T07:02:23;99167.09;;;20.80;62.53
11542;BME280;5827;49.482;7.716;2022-08-30T07:04:25;99164.38;;;20.80;61.32
11542;BME280;5827;49.482;7.716;2022-08-30T07:06:29;99168.91;;;20.85;61.43
11542;BME280;5827;49.482;7.716;2022-08-30T07:08:30;99156.38;;;20.98;63.26
11542;BME280;5827;49.482;7.716;2022-08-30T07:10:32;99160.66;;;21.04;63.19
11542;BME280;5827;49.482;7.716;2022-08-30T07:12:34;99156.22;;;21.08;63.59
11542;BME280;5827;49.482;7.716;2022-08-30T07:14:36;99165.69;;;20.97;61.26
11542;BME280;5827;49.482;7.716;2022-08-30T07:16:37;99163.59;;;21.08;61.14
11542;BME280;5827;49.482;7.716;2022-08-30T07:18:39;99159.31;;;21.29;62.45
11542;BME280;5827;49.482;7.716;2022-08-30T07:20:54;99167.72;;;21.33;60.66
11542;BME280;5827;49.482;7.716;2022-08-30T07:22:57;99177.28;;;21.44;58.78
11542;BME280;5827;49.482;7.716;2022-08-30T07:24:59;99171.13;;;21.52;59.39
11542;BME280;5827;49.482;7.716;2022-08-30T07:27:00;99166.78;;;21.51;59.54
11542;BME280;5827;49.482;7.716;2022-08-30T07:29:02;99160.50;;;21.64;59.88
11542;BME280;5827;49.482;7.716;2022-08-30T07:31:04;99167.97;;;21.72;60.19
11542;BME280;5827;49.482;7.716;2022-08-30T07:33:06;99154.69;;;21.79;62.24
11542;BME280;5827;49.482;7.716;2022-08-30T07:35:08;99162.97;;;21.88;60.26
11542;BME280;5827;49.482;7.716;2022-08-30T07:37:10;99171.66;;;21.90;59.04
11542;BME280;5827;49.482;7.716;2022-08-30T07:39:13;99162.66;;;21.90;59.98
11542;BME280;5827;49.482;7.716;2022-08-30T07:41:17;99167.50;;;21.93;59.53
11542;BME280;5827;49.482;7.716;2022-08-30T07:43:19;99159.50;;;21.96;59.75
11542;BME280;5827;49.482;7.716;2022-08-30T07:45:21;99163.59;;;22.07;59.39
11542;BME280;5827;49.482;7.716;2022-08-30T07:47:22;99171.09;;;22.16;58.52
11542;BME280;5827;49.482;7.716;2022-08-30T07:49:24;99165.94;;;22.14;58.49
11542;BME280;5827;49.482;7.716;2022-08-30T07:51:26;99170.81;;;22.26;59.15
11542;BME280;5827;49.482;7.716;2022-08-30T07:53:28;99168.97;;;22.35;58.48
11542;BME280;5827;49.482;7.716;2022-08-30T07:55:31;99167.75;;;22.05;58.38
11542;BME280;5827;49.482;7.716;2022-08-30T07:57:32;99164.88;;;22.24;58.34
11542;BME280;5827;49.482;7.716;2022-08-30T07:59:34;99175.34;;;22.30;58.18
11542;BME280;5827;49.482;7.716;2022-08-30T08:01:35;99171.47;;;22.45;58.22
11542;BME280;5827;49.482;7.716;2022-08-30T08:03:37;99173.66;;;22.66;59.40
11542;BME280;5827;49.482;7.716;2022-08-30T08:05:43;99173.41;;;22.84;58.23
11542;BME280;5827;49.482;7.716;2022-08-30T08:07:45;99176.16;;;22.84;58.29
11542;BME280;5827;49.482;7.716;2022-08-30T08:09:46;99178.56;;;22.86;56.33
11542;BME280;5827;49.482;7.716;2022-08-30T08:11:49;99183.66;;;23.01;56.50
11542;BME280;5827;49.482;7.716;2022-08-30T08:13:52;99183.84;;;23.05;56.16
11542;BME280;5827;49.482;7.716;2022-08-30T08:15:53;99185.00;;;23.21;55.01
11542;BME280;5827;49.482;7.716;2022-08-30T08:17:55;99187.56;;;23.18;53.94
11542;BME280;5827;49.482;7.716;2022-08-30T08:19:57;99174.59;;;23.32;54.04
11542;BME280;5827;49.482;7.716;2022-08-30T08:21:58;99175.03;;;23.65;54.49
11542;BME280;5827;49.482;7.716;2022-08-30T08:24:00;99168.28;;;23.89;56.48
11542;BME280;5827;49.482;7.716;2022-08-30T08:26:02;99175.38;;;23.90;54.18
11542;BME280;5827;49.482;7.716;2022-08-30T08:28:05;99194.34;;;23.95;50.25
11542;BME280;5827;49.482;7.716;2022-08-30T08:30:08;99187.56;;;23.66;51.30
11542;BME280;5827;49.482;7.716;2022-08-30T08:32:09;99195.63;;;23.80;51.01
11542;BME280;5827;49.482;7.716;2022-08-30T08:34:11;99182.59;;;23.77;52.08
11542;BME280;5827;49.482;7.716;2022-08-30T08:36:13;99191.16;;;23.93;51.50
11542;BME280;5827;49.482;7.716;2022-08-30T08:38:15;99187.94;;;24.08;51.91
11542;BME280;5827;49.482;7.716;2022-08-30T08:40:18;99175.84;;;24.00;53.72
11542;BME280;5827;49.482;7.716;2022-08-30T08:42:24;99180.22;;;24.01;52.06
11542;BME280;5827;49.482;7.716;2022-08-30T08:44:41;99192.28;;;23.92;50.63
11542;BME280;5827;49.482;7.716;2022-08-30T08:46:51;99186.63;;;24.14;51.04
11542;BME280;5827;49.482;7.716;2022-08-30T08:49:00;99187.44;;;24.23;49.91
11542;BME280;5827;49.482;7.716;2022-08-30T08:51:03;99195.34;;;24.33;49.38
11542;BME280;5827;49.482;7.716;2022-08-30T08:53:25;99188.75;;;24.43;50.64
11542;BME280;5827;49.482;7.716;2022-08-30T08:55:39;99187.09;;;24.51;49.71
11542;BME280;5827;49.482;7.716;2022-08-30T08:57:43;99195.09;;;24.73;48.80
11542;BME280;5827;49.482;7.716;2022-08-30T08:59:46;99186.75;;;24.70;48.66
11542;BME280;5827;49.482;7.716;2022-08-30T09:01:57;99190.34;;;24.53;49.35
11542;BME280;5827;49.482;7.716;2022-08-30T09:04:04;99182.91;;;24.62;49.51
11542;BME280;5827;49.482;7.716;2022-08-30T09:06:19;99172.66;;;24.89;49.86
11542;BME280;5827;49.482;7.716;2022-08-30T09:08:22;99165.81;;;25.12;51.01
11542;BME280;5827;49.482;7.716;2022-08-30T09:10:24;99181.75;;;25.19;48.29
11542;BME280;5827;49.482;7.716;2022-08-30T09:12:27;99179.31;;;25.26;49.13
11542;BME280;5827;49.482;7.716;2022-08-30T09:14:33;99176.72;;;25.29;48.34
11542;BME280;5827;49.482;7.716;2022-08-30T09:16:47;99171.91;;;25.47;48.35
11542;BME280;5827;49.482;7.716;2022-08-30T09:18:49;99173.28;;;25.62;49.47
11542;BME280;5827;49.482;7.716;2022-08-30T09:20:51;99174.75;;;25.59;47.69
11542;BME280;5827;49.482;7.716;2022-08-30T09:22:52;99176.59;;;25.76;48.24
11542;BME280;5827;49.482;7.716;2022-08-30T09:24:59;99180.94;;;25.77;47.25
11542;BME280;5827;49.482;7.716;2022-08-30T09:27:13;99169.47;;;25.75;48.04
11542;BME280;5827;49.482;7.716;2022-08-30T09:29:15;99165.00;;;25.92;49.01
11542;BME280;5827;49.482;7.716;2022-08-30T09:31:19;99170.16;;;25.93;47.75
11542;BME280;5827;49.482;7.716;2022-08-30T09:33:22;99169.69;;;26.12;47.44
11542;BME280;5827;49.482;7.716;2022-08-30T09:35:32;99165.72;;;26.22;47.20
11542;BME280;5827;49.482;7.716;2022-08-30T09:37:37;99174.00;;;26.34;46.84
11542;BME280;5827;49.482;7.716;2022-08-30T09:39:41;99175.00;;;26.29;46.32
11542;BME280;5827;49.482;7.716;2022-08-30T09:41:45;99173.50;;;26.20;47.07
11542;BME280;5827;49.482;7.716;2022-08-30T09:44:04;99173.16;;;26.21;46.93
11542;BME280;5827;49.482;7.716;2022-08-30T09:46:09;99176.16;;;26.28;45.76
11542;BME280;5827;49.482;7.716;2022-08-30T09:48:29;99170.75;;;26.20;46.35
11542;BME280;5827;49.482;7.716;2022-08-30T09:50:32;99161.66;;;26.40;46.62
11542;BME280;5827;49.482;7.716;2022-08-30T09:52:44;99160.41;;;26.38;46.13
11542;BME280;5827;49.482;7.716;2022-08-30T09:54:55;99156.94;;;26.28;46.61
11542;BME280;5827;49.482;7.716;2022-08-30T09:57:06;99158.88;;;26.61;46.76
11542;BME280;5827;49.482;7.716;2022-08-30T09:59:32;99153.16;;;26.54;46.60
11542;BME280;5827;49.482;7.716;2022-08-30T10:01:41;99149.47;;;26.50;46.24
11542;BME280;5827;49.482;7.716;2022-08-30T10:03:50;99157.19;;;26.69;46.45
11542;BME280;5827;49.482;7.716;2022-08-30T10:06:00;99148.94;;;26.69;45.71
11542;BME280;5827;49.482;7.716;2022-08-30T10:08:11;99142.09;;;26.99;46.70
11542;BME280;5827;49.482;7.716;2022-08-30T10:10:20;99144.50;;;27.01;46.51
11542;BME280;5827;49.482;7.716;2022-08-30T10:12:28;99126.63;;;27.07;46.79
11542;BME280;5827;49.482;7.716;2022-08-30T10:14:55;99143.28;;;27.10;44.80
11542;BME280;5827;49.482;7.716;2022-08-30T10:17:08;99139.56;;;27.06;45.78
11542;BME280;5827;49.482;7.716;2022-08-30T10:19:22;99139.81;;;27.01;44.99
11542;BME280;5827;49.482;7.716;2022-08-30T10:21:34;99133.06;;;27.11;45.49
11542;BME280;5827;49.482;7.716;2022-08-30T10:23:41;99135.69;;;27.20;44.55
11542;BME280;5827;49.482;7.716;2022-08-30T10:25:49;99121.81;;;27.28;45.50
11542;BME280;5827;49.482;7.716;2022-08-30T10:27:54;99129.34;;;27.56;45.72
11542;BME280;5827;49.482;7.716;2022-08-30T10:30:03;99129.66;;;27.67;45.96
11542;BME280;5827;49.482;7.716;2022-08-30T10:32:13;99132.78;;;27.65;44.46
11542;BME280;5827;49.482;7.716;2022-08-30T10:34:24;99133.50;;;27.90;44.65
11542;BME280;5827;49.482;7.716;2022-08-30T10:36:32;99127.88;;;27.99;44.62
11542;BME280;5827;49.482;7.716;2022-08-30T10:38:37;99139.63;;;27.83;43.54
11542;BME280;5827;49.482;7.716;2022-08-30T10:40:43;99131.25;;;27.80;44.55
11542;BME280;5827;49.482;7.716;2022-08-30T10:43:08;99140.53;;;27.88;43.46
11542;BME280;5827;49.482;7.716;2022-08-30T10:45:14;99139.00;;;28.02;44.29
11542;BME280;5827;49.482;7.716;2022-08-30T10:47:25;99130.22;;;28.12;43.46
11542;BME280;5827;49.482;7.716;2022-08-30T10:49:34;99126.75;;;28.16;44.20
11542;BME280;5827;49.482;7.716;2022-08-30T10:51:40;99133.72;;;28.25;43.80
11542;BME280;5827;49.482;7.716;2022-08-30T10:53:47;99134.03;;;28.36;43.20
11542;BME280;5827;49.482;7.716;2022-08-30T10:55:54;99128.41;;;28.32;44.07
11542;BME280;5827;49.482;7.716;2022-08-30T10:57:58;99130.22;;;28.12;43.25
11542;BME280;5827;49.482;7.716;2022-08-30T11:00:07;99130.13;;;28.09;43.51
11542;BME280;5827;49.482;7.716;2022-08-30T11:02:25;99128.84;;;28.19;43.44
11542;BME280;5827;49.482;7.716;2022-08-30T11:04:52;99126.16;;;28.22;42.63